Oakland, California
Current Conditions -  °F | °C
As of 6:39 AM on Friday 28 Nov 2014 (Local Time) from KOAK Reporting Station
Light Fog Light Fog  
Wind Chill: 52°   Ceiling: 1300
Heat Index: 52°   Visibility: 3mi
Dew Point: 50°   Wind: 3mph
Humidity: 94%   Direction: 350°N
Pressure: 30.03"   Gusts: NA
Location:  37.81°N, 122.27°W
Report Text: KOAK 281439Z 35003KT 3SM MIFG BR OVC013 11/10 A3003 RMK AO2 $
Loading
Personal Weather Stations






























Interactive Weather Map New forecast layout! Learn more

10-Day Weather Forecast

Advertisements
Track Severe Weather on mobile